Time;durP1;ratioP1;P1;durP2;ratioP2;P2;SDS_P1;SDS_P2;PMS_P1;PMS_P2;Temp;Humidity;BMP_temperature;BMP_pressure;BME280_temperature;BME280_humidity;BME280_pressure;Samples;Min_cycle;Max_cycle;Signal;HPM_P1;HPM_P2
2022/10/28 00:00:04;;;;;;;;;62.00;49.50;;;;;;;;6488682;31;8973;-62
2022/10/28 00:06:10;;;;;;;;;60.25;50.50;;;;;;;;6491615;39;8915;-61
2022/10/28 00:12:14;;;;;;;;;58.75;48.25;;;;;;;;6490626;39;8929;-62
2022/10/28 00:18:17;;;;;;;;;61.50;49.50;;;;;;;;6490855;39;8923;-62
2022/10/28 00:24:20;;;;;;;;;57.50;45.25;;;;;;;;6490985;39;8910;-62
2022/10/28 00:30:22;;;;;;;;;59.75;47.50;;;;;;;;6491430;39;8900;-61
2022/10/28 00:36:32;;;;;;;;;63.00;52.25;;;;;;;;6490374;46;8862;-62
2022/10/28 00:42:37;;;;;;;;;63.75;50.25;;;;;;;;6490750;46;8906;-60
2022/10/28 00:48:42;;;;;;;;;59.75;48.00;;;;;;;;6491217;31;9082;-61
2022/10/28 00:54:45;;;;;;;;;54.50;46.50;;;;;;;;6491020;39;9502;-61
2022/10/28 01:00:48;;;;;;;;;55.00;45.00;;;;;;;;6489763;46;8929;-62
2022/10/28 01:06:53;;;;;;;;;56.50;43.00;;;;;;;;6490291;46;8946;-63
2022/10/28 01:13:10;;;;;;;;;45.50;38.75;;;;;;;;6489939;46;8842;-62
2022/10/28 01:19:52;;;;;;;;;51.25;42.25;;;;;;;;6491670;31;8832;-62
2022/10/28 01:26:12;;;;;;;;;52.00;41.00;;;;;;;;6489755;39;8940;-62
2022/10/28 01:32:36;;;;;;;;;43.25;39.25;;;;;;;;6490953;39;8894;-63
2022/10/28 01:39:11;;;;;;;;;36.75;35.00;;;;;;;;6518283;31;8947;-61
2022/10/28 01:45:20;;;;;;;;;42.00;39.00;;;;;;;;6490148;46;9044;-61
2022/10/28 01:51:34;;;;;;;;;43.50;39.50;;;;;;;;6489458;46;8905;-62
2022/10/28 01:57:41;;;;;;;;;46.75;39.00;;;;;;;;6491379;39;8960;-63
2022/10/28 02:03:46;;;;;;;;;41.25;38.75;;;;;;;;6489786;46;8885;-61
2022/10/28 02:10:08;;;;;;;;;40.25;38.50;;;;;;;;6490546;39;8905;-63
2022/10/28 02:16:42;;;;;;;;;39.75;33.25;;;;;;;;6490410;46;8952;-62
2022/10/28 02:23:03;;;;;;;;;38.00;34.00;;;;;;;;6488659;39;8873;-62
2022/10/28 02:29:19;;;;;;;;;33.25;29.00;;;;;;;;6488467;46;8928;-61
2022/10/28 02:35:32;;;;;;;;;34.00;32.50;;;;;;;;6489980;31;8949;-62
2022/10/28 02:41:49;;;;;;;;;32.00;32.00;;;;;;;;6488970;46;9013;-61
2022/10/28 02:47:59;;;;;;;;;35.00;32.50;;;;;;;;6489322;39;8956;-61
2022/10/28 02:54:13;;;;;;;;;34.00;30.75;;;;;;;;6490317;31;8848;-61
2022/10/28 03:00:18;;;;;;;;;26.75;25.50;;;;;;;;6489143;47;8939;-62
2022/10/28 03:06:21;;;;;;;;;30.25;30.25;;;;;;;;6489205;47;8989;-62
2022/10/28 03:12:25;;;;;;;;;35.75;32.50;;;;;;;;6488398;39;8995;-61
2022/10/28 03:18:29;;;;;;;;;33.00;29.25;;;;;;;;6489481;39;8857;-62
2022/10/28 03:24:32;;;;;;;;;34.00;30.50;;;;;;;;6489528;39;8964;-63
2022/10/28 03:30:35;;;;;;;;;30.75;30.00;;;;;;;;6487884;47;8857;-61
2022/10/28 03:36:38;;;;;;;;;34.50;30.25;;;;;;;;6488835;39;8842;-62
2022/10/28 03:42:41;;;;;;;;;28.00;25.50;;;;;;;;6491190;46;8869;-62
2022/10/28 03:48:46;;;;;;;;;35.00;31.75;;;;;;;;6490992;31;8987;-61
2022/10/28 03:54:48;;;;;;;;;30.50;30.50;;;;;;;;6492418;31;8810;-61
2022/10/28 04:00:51;;;;;;;;;32.50;30.50;;;;;;;;6491129;31;8940;-62
2022/10/28 04:06:57;;;;;;;;;36.75;30.00;;;;;;;;6490437;39;8905;-62
2022/10/28 04:13:01;;;;;;;;;30.75;28.25;;;;;;;;6491449;31;8981;-62
2022/10/28 04:19:06;;;;;;;;;33.25;32.50;;;;;;;;6508298;31;8917;-62
2022/10/28 04:25:09;;;;;;;;;35.75;32.75;;;;;;;;6491923;39;9544;-63
2022/10/28 04:31:14;;;;;;;;;27.50;26.00;;;;;;;;6490171;31;8952;-62
2022/10/28 04:37:16;;;;;;;;;38.00;32.00;;;;;;;;6488385;31;8869;-61
2022/10/28 04:43:23;;;;;;;;;36.25;33.50;;;;;;;;6489927;31;8845;-62
2022/10/28 04:49:25;;;;;;;;;29.75;29.00;;;;;;;;6489150;39;9664;-61
2022/10/28 04:55:27;;;;;;;;;35.00;28.50;;;;;;;;6487801;31;8908;-60
2022/10/28 05:01:43;;;;;;;;;38.75;33.75;;;;;;;;6474118;39;9028;-60
2022/10/28 05:07:46;;;;;;;;;43.00;39.00;;;;;;;;6488347;46;8902;-61
2022/10/28 05:13:51;;;;;;;;;37.75;30.25;;;;;;;;6489423;39;8951;-61
2022/10/28 05:19:54;;;;;;;;;34.25;34.25;;;;;;;;6491256;31;8921;-61
2022/10/28 05:25:59;;;;;;;;;35.50;33.25;;;;;;;;6489018;46;9004;-60
2022/10/28 05:32:02;;;;;;;;;34.75;31.75;;;;;;;;6489317;39;9528;-61
2022/10/28 05:38:24;;;;;;;;;38.25;37.50;;;;;;;;6489687;31;8939;-60
2022/10/28 05:44:26;;;;;;;;;34.00;33.25;;;;;;;;6490287;31;8874;-60
2022/10/28 05:50:28;;;;;;;;;33.25;33.25;;;;;;;;6489995;31;8924;-60
2022/10/28 05:56:31;;;;;;;;;36.75;33.75;;;;;;;;6489631;46;9068;-60
2022/10/28 06:02:38;;;;;;;;;42.25;35.25;;;;;;;;6490633;39;8977;-61
2022/10/28 06:08:41;;;;;;;;;39.00;37.50;;;;;;;;6487656;39;9515;-60
2022/10/28 06:14:43;;;;;;;;;40.00;36.50;;;;;;;;6487422;39;8862;-62
2022/10/28 06:20:55;;;;;;;;;37.00;34.25;;;;;;;;6473172;31;8911;-63
2022/10/28 06:26:58;;;;;;;;;40.00;36.75;;;;;;;;6483379;39;9537;-60
2022/10/28 06:33:00;;;;;;;;;38.25;35.75;;;;;;;;6489155;31;8912;-61
2022/10/28 06:39:03;;;;;;;;;40.50;34.50;;;;;;;;6486594;39;8902;-60
2022/10/28 06:45:06;;;;;;;;;48.75;40.00;;;;;;;;6486965;39;8941;-62
2022/10/28 06:51:09;;;;;;;;;41.25;40.25;;;;;;;;6487492;46;8945;-60
2022/10/28 06:57:11;;;;;;;;;31.25;29.50;;;;;;;;6484858;47;8871;-61
2022/10/28 07:03:17;;;;;;;;;29.50;27.50;;;;;;;;6485404;46;8895;-59
2022/10/28 07:09:20;;;;;;;;;41.25;39.50;;;;;;;;6485029;31;9044;-62
2022/10/28 07:15:26;;;;;;;;;33.75;30.25;;;;;;;;6488151;31;8866;-61
2022/10/28 07:21:30;;;;;;;;;40.25;37.25;;;;;;;;6490342;31;8880;-61
2022/10/28 07:27:34;;;;;;;;;43.25;37.50;;;;;;;;6489253;39;8973;-63
2022/10/28 07:33:39;;;;;;;;;38.25;32.00;;;;;;;;6486389;31;8944;-60
2022/10/28 07:39:41;;;;;;;;;38.00;35.25;;;;;;;;6489334;31;8862;-60
2022/10/28 07:45:47;;;;;;;;;43.75;37.00;;;;;;;;6488953;39;9680;-61
2022/10/28 07:51:57;;;;;;;;;46.00;39.50;;;;;;;;6489861;31;8888;-60
2022/10/28 07:58:02;;;;;;;;;43.25;37.25;;;;;;;;6479242;31;8923;-60
2022/10/28 08:04:08;;;;;;;;;39.25;35.00;;;;;;;;6487642;46;8925;-60
2022/10/28 08:10:11;;;;;;;;;36.25;35.25;;;;;;;;6483288;39;9050;-64
2022/10/28 08:16:16;;;;;;;;;41.25;38.00;;;;;;;;6487727;31;8870;-62
2022/10/28 08:22:18;;;;;;;;;44.75;39.25;;;;;;;;6488887;39;8879;-60
2022/10/28 08:28:23;;;;;;;;;43.33;37.33;;;;;;;;6488602;39;8906;-60
2022/10/28 08:34:28;;;;;;;;;29.00;25.67;;;;;;;;6489403;31;8954;-61
2022/10/28 08:40:51;;;;;;;;;35.67;32.67;;;;;;;;6478411;39;8854;-60
2022/10/28 08:47:13;;;;;;;;;29.50;28.25;;;;;;;;6488296;31;8902;-64
2022/10/28 08:53:27;;;;;;;;;39.67;35.33;;;;;;;;6485814;39;8934;-61
2022/10/28 08:59:37;;;;;;;;;39.33;35.33;;;;;;;;6487935;39;8851;-62
2022/10/28 09:05:46;;;;;;;;;41.33;34.67;;;;;;;;6487419;39;8961;-62
2022/10/28 09:12:06;;;;;;;;;37.00;34.67;;;;;;;;6487166;39;8999;-62
2022/10/28 09:18:41;;;;;;;;;32.00;29.33;;;;;;;;6489466;31;8846;-63
2022/10/28 09:24:53;;;;;;;;;51.67;41.33;;;;;;;;6487813;46;8903;-63
2022/10/28 09:31:01;;;;;;;;;38.33;35.67;;;;;;;;6488876;39;8901;-60
2022/10/28 09:37:20;;;;;;;;;36.67;35.00;;;;;;;;6487123;39;9068;-60
2022/10/28 09:43:27;;;;;;;;;35.33;32.33;;;;;;;;6488624;39;8855;-61
2022/10/28 09:49:35;;;;;;;;;57.75;48.00;;;;;;;;6487079;39;8895;-61
2022/10/28 09:55:37;;;;;;;;;59.33;46.67;;;;;;;;6486127;31;8862;-61
2022/10/28 10:01:41;;;;;;;;;40.00;35.00;;;;;;;;6486843;46;8914;-61
2022/10/28 10:08:07;;;;;;;;;33.00;32.00;;;;;;;;6487070;31;8910;-62
2022/10/28 10:14:15;;;;;;;;;36.67;35.33;;;;;;;;6486303;39;9507;-60
2022/10/28 10:20:21;;;;;;;;;34.67;32.33;;;;;;;;6485847;31;8871;-62
2022/10/28 10:26:31;;;;;;;;;33.33;31.00;;;;;;;;6486149;39;8899;-62
2022/10/28 10:32:35;;;;;;;;;36.00;32.67;;;;;;;;6486268;39;8949;-62
2022/10/28 10:38:50;;;;;;;;;35.67;33.33;;;;;;;;6484198;46;8860;-62
2022/10/28 10:45:19;;;;;;;;;29.00;29.00;;;;;;;;6485680;31;8906;-62
2022/10/28 10:51:26;;;;;;;;;30.33;28.00;;;;;;;;6485597;31;8979;-61
2022/10/28 10:57:29;;;;;;;;;33.00;30.00;;;;;;;;6486318;31;8882;-59
2022/10/28 11:04:01;;;;;;;;;35.67;32.67;;;;;;;;6484159;39;8927;-62
2022/10/28 11:10:05;;;;;;;;;34.33;31.00;;;;;;;;6483501;31;8914;-61
2022/10/28 11:16:24;;;;;;;;;40.67;35.67;;;;;;;;6485467;31;8844;-62
2022/10/28 11:22:41;;;;;;;;;38.33;35.00;;;;;;;;6485027;31;8945;-63
2022/10/28 11:29:03;;;;;;;;;32.67;31.67;;;;;;;;6483906;39;8899;-61
2022/10/28 11:35:23;;;;;;;;;30.67;30.00;;;;;;;;6485643;39;8858;-61
2022/10/28 11:41:55;;;;;;;;;36.67;32.33;;;;;;;;6486560;31;8875;-58
2022/10/28 11:48:17;;;;;;;;;29.33;28.33;;;;;;;;6486099;39;9552;-62
2022/10/28 11:55:21;;;;;;;;;31.67;31.33;;;;;;;;6487142;31;9521;-61
2022/10/28 12:01:56;;;;;;;;;31.67;28.33;;;;;;;;6483196;39;8896;-61
2022/10/28 12:08:04;;;;;;;;;28.67;27.33;;;;;;;;6484245;31;8915;-60
2022/10/28 12:14:39;;;;;;;;;11.00;10.00;;;;;;;;6487422;31;9261;-60
2022/10/28 12:21:03;;;;;;;;;17.00;14.33;;;;;;;;6487233;39;8903;-62
2022/10/28 12:27:17;;;;;;;;;15.50;14.00;;;;;;;;6488238;31;9046;-60
2022/10/28 12:33:36;;;;;;;;;19.67;17.33;;;;;;;;6487045;46;8884;-62
2022/10/28 12:39:46;;;;;;;;;17.67;15.00;;;;;;;;6486990;31;8913;-61
2022/10/28 12:45:53;;;;;;;;;15.00;14.67;;;;;;;;6487244;39;8855;-61
2022/10/28 12:52:05;;;;;;;;;18.33;17.33;;;;;;;;6488075;31;8898;-61
2022/10/28 12:58:22;;;;;;;;;20.67;19.33;;;;;;;;6486989;46;8915;-60
2022/10/28 13:04:27;;;;;;;;;19.00;18.00;;;;;;;;6486794;31;8962;-61
2022/10/28 13:10:50;;;;;;;;;19.33;18.00;;;;;;;;6486074;39;8884;-60
2022/10/28 13:17:19;;;;;;;;;21.00;18.67;;;;;;;;6485006;39;8984;-62
2022/10/28 13:23:48;;;;;;;;;19.33;17.00;;;;;;;;6486478;31;8888;-61
2022/10/28 13:29:55;;;;;;;;;18.67;18.67;;;;;;;;6486180;31;8933;-60
2022/10/28 13:36:18;;;;;;;;;15.33;14.33;;;;;;;;6487610;39;8901;-61
2022/10/28 13:42:22;;;;;;;;;25.00;24.33;;;;;;;;6483017;39;9482;-60
2022/10/28 13:48:29;;;;;;;;;29.00;24.33;;;;;;;;6487180;31;9157;-59
2022/10/28 13:54:52;;;;;;;;;21.67;21.00;;;;;;;;6487582;39;8910;-60
2022/10/28 14:00:55;;;;;;;;;20.67;20.67;;;;;;;;6487874;39;9559;-61
2022/10/28 14:07:00;;;;;;;;;22.67;21.33;;;;;;;;6487699;39;8959;-61
2022/10/28 14:13:14;;;;;;;;;24.33;23.67;;;;;;;;6487805;39;8912;-61
2022/10/28 14:19:35;;;;;;;;;20.00;19.33;;;;;;;;6486608;47;8922;-61
2022/10/28 14:25:44;;;;;;;;;14.00;11.67;;;;;;;;6486744;39;8868;-60
2022/10/28 14:31:47;;;;;;;;;24.67;22.67;;;;;;;;6487668;39;8872;-61
2022/10/28 14:38:48;;;;;;;;;30.33;28.33;;;;;;;;6487130;39;8873;-60
2022/10/28 14:45:03;;;;;;;;;26.33;24.33;;;;;;;;6482892;46;8856;-60
2022/10/28 14:51:13;;;;;;;;;29.33;23.00;;;;;;;;6487861;31;9044;-59
2022/10/28 14:57:20;;;;;;;;;18.67;17.67;;;;;;;;6486971;46;8930;-60
2022/10/28 15:03:23;;;;;;;;;23.67;22.33;;;;;;;;6486430;31;9018;-60
2022/10/28 15:09:31;;;;;;;;;31.67;28.00;;;;;;;;6485733;39;8893;-60
2022/10/28 15:15:34;;;;;;;;;36.00;33.33;;;;;;;;6486725;31;9054;-61
2022/10/28 15:21:36;;;;;;;;;41.67;38.67;;;;;;;;6486727;39;8857;-61
2022/10/28 15:27:41;;;;;;;;;36.33;33.67;;;;;;;;6486483;39;8862;-59
2022/10/28 15:33:43;;;;;;;;;33.67;31.33;;;;;;;;6487596;46;8865;-61
2022/10/28 15:39:51;;;;;;;;;35.00;33.00;;;;;;;;6488402;31;9094;-61
2022/10/28 15:45:55;;;;;;;;;29.67;29.00;;;;;;;;6488696;31;9145;-60
2022/10/28 15:52:16;;;;;;;;;33.67;29.00;;;;;;;;6488310;39;8978;-62
2022/10/28 15:58:18;;;;;;;;;33.33;32.33;;;;;;;;6488649;39;8964;-60
2022/10/28 16:04:20;;;;;;;;;43.00;37.00;;;;;;;;6487862;46;8927;-62
2022/10/28 16:10:27;;;;;;;;;44.00;39.00;;;;;;;;6488650;31;9015;-61
2022/10/28 16:16:31;;;;;;;;;41.00;36.67;;;;;;;;6488229;31;8885;-61
2022/10/28 16:22:35;;;;;;;;;46.33;38.33;;;;;;;;6488088;39;8878;-62
2022/10/28 16:28:37;;;;;;;;;53.00;40.00;;;;;;;;6487855;39;9010;-61
2022/10/28 16:34:45;;;;;;;;;50.33;40.00;;;;;;;;6489210;39;8905;-60
2022/10/28 16:40:51;;;;;;;;;52.50;42.25;;;;;;;;6487660;39;8863;-62
2022/10/28 16:46:53;;;;;;;;;48.50;42.50;;;;;;;;6488590;39;9061;-62
2022/10/28 16:52:56;;;;;;;;;56.75;46.75;;;;;;;;6486957;39;8991;-62
2022/10/28 16:58:58;;;;;;;;;57.25;47.00;;;;;;;;6488526;31;8882;-60
